Time;durP1;ratioP1;P1;durP2;ratioP2;P2;SDS_P1;SDS_P2;PMS_P1;PMS_P2;Temp;Humidity;BMP_temperature;BMP_pressure;BME280_temperature;BME280_humidity;BME280_pressure;Samples;Min_cycle;Max_cycle;Signal;HPM_P1;HPM_P2
2020/12/07 00:00:19;;;;;;;2.57;1.60;;;9.10;98.20;;;;;;7746318;28;20055;-77
2020/12/07 00:04:01;;;;;;;2.53;1.57;;;9.10;98.20;;;;;;7740233;28;20098;-75
2020/12/07 00:07:43;;;;;;;3.83;2.23;;;9.10;98.20;;;;;;7742180;28;20106;-76
2020/12/07 00:11:25;;;;;;;3.57;2.00;;;9.10;98.10;;;;;;7740364;28;20056;-76
2020/12/07 00:15:07;;;;;;;2.87;1.70;;;9.10;98.00;;;;;;7738543;28;20056;-76
2020/12/07 00:18:48;;;;;;;3.07;1.70;;;9.20;98.00;;;;;;7742570;28;20078;-76
2020/12/07 00:22:30;;;;;;;4.53;2.43;;;9.20;98.00;;;;;;7743211;28;20067;-76
2020/12/07 00:26:12;;;;;;;3.67;2.27;;;9.20;97.90;;;;;;7743126;28;20128;-76
2020/12/07 00:29:55;;;;;;;3.43;1.70;;;9.20;97.80;;;;;;7723837;28;20435;-76
2020/12/07 00:33:36;;;;;;;2.93;1.60;;;9.20;97.90;;;;;;7746122;28;20063;-76
2020/12/07 00:37:18;;;;;;;9.73;5.53;;;9.10;97.90;;;;;;7736382;28;20396;-76
2020/12/07 00:41:00;;;;;;;4.97;2.90;;;9.20;97.90;;;;;;7736870;28;20063;-76
2020/12/07 00:44:42;;;;;;;3.10;1.70;;;9.10;98.00;;;;;;7734373;28;20436;-73
2020/12/07 00:48:23;;;;;;;3.73;2.00;;;9.10;98.10;;;;;;7724123;28;20052;-75
2020/12/07 00:52:06;;;;;;;3.97;2.10;;;9.10;98.20;;;;;;7716877;28;20162;-76
2020/12/07 00:55:47;;;;;;;5.60;3.27;;;9.10;98.20;;;;;;7731800;28;20504;-76
2020/12/07 00:59:29;;;;;;;3.10;1.80;;;9.10;98.10;;;;;;7713384;28;20449;-76
2020/12/07 01:03:11;;;;;;;3.80;2.33;;;9.00;98.10;;;;;;7725130;28;20117;-76
2020/12/07 01:06:53;;;;;;;3.40;2.10;;;9.10;98.20;;;;;;7713707;28;20132;-75
2020/12/07 01:10:34;;;;;;;3.40;1.80;;;9.00;98.20;;;;;;7721181;28;20056;-75
2020/12/07 01:14:17;;;;;;;3.37;2.00;;;9.00;98.10;;;;;;7713168;28;20060;-75
2020/12/07 01:17:58;;;;;;;3.53;1.80;;;9.00;98.10;;;;;;7728328;28;20073;-75
2020/12/07 01:21:40;;;;;;;2.57;1.60;;;9.00;98.10;;;;;;7722146;28;20081;-76
2020/12/07 01:25:22;;;;;;;2.47;1.40;;;9.00;98.00;;;;;;7711642;28;20127;-75
2020/12/07 01:29:04;;;;;;;3.07;1.83;;;9.00;98.00;;;;;;7719324;28;20064;-75
2020/12/07 01:32:45;;;;;;;3.00;1.60;;;9.00;98.00;;;;;;7730757;28;20052;-75
2020/12/07 01:36:27;;;;;;;2.80;1.90;;;9.00;98.00;;;;;;7728763;28;20152;-76
2020/12/07 01:40:08;;;;;;;3.03;1.90;;;9.10;98.00;;;;;;7720968;28;20503;-75
2020/12/07 01:43:50;;;;;;;5.00;2.90;;;9.10;97.90;;;;;;7709416;28;20060;-75
2020/12/07 01:47:32;;;;;;;3.17;1.90;;;9.10;97.90;;;;;;7716805;28;20155;-76
2020/12/07 01:51:15;;;;;;;4.27;2.37;;;9.10;97.90;;;;;;7728381;28;20063;-75
2020/12/07 01:54:56;;;;;;;3.60;2.10;;;9.00;98.00;;;;;;7729901;28;20428;-76
2020/12/07 01:58:40;;;;;;;3.57;1.90;;;9.10;98.00;;;;;;7716452;28;20083;-74
2020/12/07 02:02:22;;;;;;;2.90;1.63;;;9.00;97.90;;;;;;7725970;28;20068;-73
2020/12/07 02:06:04;;;;;;;3.03;2.23;;;9.00;97.90;;;;;;7725277;28;20055;-75
2020/12/07 02:09:45;;;;;;;3.33;2.10;;;9.00;97.80;;;;;;7714925;28;20546;-75
2020/12/07 02:13:27;;;;;;;3.63;2.07;;;9.00;97.70;;;;;;7718695;28;20126;-76
2020/12/07 02:17:08;;;;;;;2.40;1.67;;;8.90;97.60;;;;;;7720354;28;20468;-76
2020/12/07 02:20:50;;;;;;;2.60;1.50;;;8.90;97.50;;;;;;7708166;28;20139;-76
2020/12/07 02:24:31;;;;;;;2.73;1.73;;;8.80;97.40;;;;;;7725643;28;20085;-76
2020/12/07 02:28:13;;;;;;;3.53;2.23;;;8.80;97.30;;;;;;7714335;28;20082;-75
2020/12/07 02:32:11;;;;;;;2.83;1.97;;;8.70;97.20;;;;;;7742249;27;20131;-75
2020/12/07 02:35:53;;;;;;;2.93;1.93;;;8.70;97.00;;;;;;7719417;28;20059;-75
2020/12/07 02:39:34;;;;;;;3.00;2.00;;;8.50;96.90;;;;;;7717227;28;20139;-76
2020/12/07 02:43:16;;;;;;;3.47;1.97;;;8.40;97.00;;;;;;7719779;28;20180;-75
2020/12/07 02:46:59;;;;;;;3.70;1.90;;;8.30;97.00;;;;;;7733890;27;20088;-76
2020/12/07 02:50:40;;;;;;;2.60;1.60;;;8.20;97.00;;;;;;7728306;28;20056;-76
2020/12/07 02:54:22;;;;;;;2.40;1.70;;;8.10;96.80;;;;;;7739851;28;20059;-76
2020/12/07 02:58:03;;;;;;;7.47;4.50;;;8.00;96.80;;;;;;7729808;28;20060;-75
2020/12/07 03:01:44;;;;;;;4.67;2.90;;;7.90;97.00;;;;;;7726579;28;20110;-75
2020/12/07 03:05:26;;;;;;;5.03;3.03;;;7.80;97.30;;;;;;7725550;28;20109;-75
2020/12/07 03:09:08;;;;;;;3.73;2.30;;;7.70;97.50;;;;;;7720398;28;20049;-75
2020/12/07 03:12:49;;;;;;;2.40;1.63;;;7.70;97.50;;;;;;7721345;28;20082;-75
2020/12/07 03:16:30;;;;;;;1.77;1.20;;;7.60;97.60;;;;;;7710192;28;20225;-74
2020/12/07 03:20:12;;;;;;;2.43;1.30;;;7.70;97.80;;;;;;7711406;28;20052;-76
2020/12/07 03:23:53;;;;;;;2.67;1.50;;;7.70;97.80;;;;;;7709707;28;20084;-75
2020/12/07 03:27:35;;;;;;;1.97;1.27;;;7.70;97.90;;;;;;7702452;28;20056;-75
2020/12/07 03:31:17;;;;;;;1.40;1.03;;;7.80;98.00;;;;;;7705833;28;20603;-76
2020/12/07 03:34:58;;;;;;;1.87;1.20;;;7.80;98.10;;;;;;7704756;28;20139;-76
2020/12/07 03:38:40;;;;;;;2.80;2.00;;;7.90;98.20;;;;;;7707339;28;20334;-76
2020/12/07 03:42:21;;;;;;;5.80;3.43;;;7.90;98.20;;;;;;7698626;28;20068;-76
2020/12/07 03:46:03;;;;;;;7.53;4.53;;;8.00;98.20;;;;;;7749364;28;20061;-75
2020/12/07 03:49:48;;;;;;;8.27;5.03;;;8.00;98.20;;;;;;7711391;28;20105;-75
2020/12/07 03:53:34;;;;;;;5.90;3.63;;;7.60;98.20;;;;;;7719197;28;20062;-75
2020/12/07 03:57:16;;;;;;;3.40;1.83;;;7.80;98.40;;;;;;7709669;28;20136;-75
2020/12/07 04:00:58;;;;;;;2.90;1.57;;;7.80;98.80;;;;;;7710795;28;20083;-75
2020/12/07 04:04:52;;;;;;;3.83;2.17;;;7.80;99.00;;;;;;7711746;28;20098;-76
2020/12/07 04:08:34;;;;;;;2.80;1.80;;;7.80;99.00;;;;;;7714474;28;20063;-75
2020/12/07 04:12:15;;;;;;;2.27;1.30;;;7.80;99.00;;;;;;7714215;28;20130;-75
2020/12/07 04:15:57;;;;;;;3.43;1.97;;;7.90;99.10;;;;;;7717746;28;20087;-75
2020/12/07 04:19:41;;;;;;;6.17;4.07;;;7.90;99.00;;;;;;7729715;28;20066;-75
2020/12/07 04:23:23;;;;;;;5.37;2.90;;;8.00;98.90;;;;;;7715111;28;20144;-76
2020/12/07 04:27:04;;;;;;;3.63;2.17;;;8.00;98.80;;;;;;7720683;28;20592;-74
2020/12/07 04:30:45;;;;;;;4.20;2.60;;;7.90;98.90;;;;;;7724777;28;20063;-74
2020/12/07 04:34:27;;;;;;;7.40;4.87;;;8.00;98.80;;;;;;7717209;28;20064;-74
2020/12/07 04:38:09;;;;;;;9.13;5.23;;;7.90;98.70;;;;;;7718559;28;20068;-76
2020/12/07 04:41:51;;;;;;;10.53;6.13;;;7.80;98.70;;;;;;7723797;28;20143;-76
2020/12/07 04:45:32;;;;;;;7.60;5.00;;;7.80;98.80;;;;;;7704123;28;20479;-77
2020/12/07 04:49:16;;;;;;;5.53;3.53;;;7.70;99.00;;;;;;7715607;28;20116;-75
2020/12/07 04:52:58;;;;;;;3.70;2.13;;;7.60;99.10;;;;;;7749470;27;20111;-76
2020/12/07 04:56:40;;;;;;;6.50;4.10;;;7.70;99.30;;;;;;7717168;28;20131;-76
2020/12/07 05:00:24;;;;;;;5.60;3.60;;;7.70;99.10;;;;;;7716147;28;20139;-75
2020/12/07 05:04:05;;;;;;;3.57;1.90;;;7.60;99.00;;;;;;7717329;28;20476;-75
2020/12/07 05:07:49;;;;;;;3.63;2.30;;;7.60;99.10;;;;;;7723917;28;20100;-75
2020/12/07 05:11:31;;;;;;;5.63;3.57;;;7.70;99.10;;;;;;7740375;28;20423;-75
2020/12/07 05:15:14;;;;;;;6.60;4.10;;;7.60;98.90;;;;;;7720414;28;20052;-75
2020/12/07 05:18:56;;;;;;;9.27;6.20;;;7.60;99.00;;;;;;7713308;28;20170;-75
2020/12/07 05:22:39;;;;;;;7.30;4.23;;;7.60;98.90;;;;;;7721150;28;20436;-75
2020/12/07 05:26:22;;;;;;;5.10;3.37;;;7.50;98.90;;;;;;7715447;28;20142;-75
2020/12/07 05:33:49;;;;;;;5.90;3.70;;;7.40;99.10;;;;;;7716675;28;20103;-75
2020/12/07 05:37:35;;;;;;;5.10;3.07;;;7.40;99.10;;;;;;7716652;28;20456;-75
2020/12/07 05:41:21;;;;;;;4.97;3.50;;;7.40;99.20;;;;;;7709575;28;20143;-76
2020/12/07 05:45:04;;;;;;;7.57;5.03;;;7.40;99.10;;;;;;7712658;28;20090;-74
2020/12/07 05:48:46;;;;;;;8.77;5.77;;;7.40;99.10;;;;;;7706725;28;20648;-76
2020/12/07 05:52:34;;;;;;;17.53;11.13;;;7.40;99.10;;;;;;7730172;28;20059;-76
2020/12/07 05:56:17;;;;;;;13.90;9.13;;;7.30;98.90;;;;;;7714210;28;20063;-75
2020/12/07 06:00:05;;;;;;;8.37;5.33;;;7.20;98.70;;;;;;7726454;28;20131;-75
2020/12/07 06:03:47;;;;;;;8.30;5.27;;;7.10;99.00;;;;;;7718009;28;20064;-75
2020/12/07 06:07:33;;;;;;;10.80;6.87;;;6.90;99.20;;;;;;7716099;28;20053;-75
2020/12/07 06:11:17;;;;;;;6.97;5.15;;;6.80;99.30;;;;;;7742848;27;20759;-75
2020/12/07 06:14:59;;;;;;;5.23;3.73;;;6.70;99.60;;;;;;7715313;28;20131;-75
2020/12/07 06:18:43;;;;;;;9.50;5.67;;;6.70;99.80;;;;;;7717430;28;20148;-75
2020/12/07 06:22:25;;;;;;;11.77;7.77;;;6.70;99.70;;;;;;7707346;28;20060;-75
2020/12/07 06:26:09;;;;;;;13.20;9.17;;;6.70;99.60;;;;;;7720497;28;20574;-75
2020/12/07 06:30:03;;;;;;;16.43;10.43;;;6.70;99.50;;;;;;7710584;28;20105;-76
2020/12/07 06:33:50;;;;;;;12.40;8.67;;;6.60;99.30;;;;;;7720994;28;20063;-75
2020/12/07 06:37:35;;;;;;;29.17;12.13;;;6.50;99.50;;;;;;7707198;28;20101;-75
2020/12/07 06:41:28;;;;;;;7.73;5.37;;;6.40;99.80;;;;;;7711833;28;20102;-75
2020/12/07 06:45:28;;;;;;;8.60;5.53;;;6.30;99.90;;;;;;7729571;28;20063;-75
2020/12/07 06:49:10;;;;;;;10.80;7.20;;;6.30;99.90;;;;;;7704260;28;20052;-76
2020/12/07 06:52:52;;;;;;;6.23;4.27;;;6.20;99.90;;;;;;7719837;28;20056;-75
2020/12/07 06:56:34;;;;;;;6.67;4.37;;;6.20;99.90;;;;;;7719214;28;20048;-75
2020/12/07 07:00:26;;;;;;;13.43;8.77;;;6.20;99.90;;;;;;7719533;28;20090;-75
2020/12/07 07:04:09;;;;;;;34.93;9.67;;;6.20;99.90;;;;;;7711440;28;20064;-75
2020/12/07 07:07:51;;;;;;;9.17;6.10;;;6.20;99.90;;;;;;7718406;28;20053;-75
2020/12/07 07:11:33;;;;;;;15.67;7.10;;;6.20;99.90;;;;;;7708356;28;20048;-74
2020/12/07 07:15:15;;;;;;;9.10;5.57;;;6.10;99.90;;;;;;7731516;28;20155;-76
2020/12/07 07:18:57;;;;;;;7.33;5.10;;;6.10;99.90;;;;;;7721028;28;20113;-75
2020/12/07 07:22:49;;;;;;;7.63;5.10;;;6.10;99.90;;;;;;7726910;28;20575;-78
2020/12/07 07:26:34;;;;;;;44.87;10.80;;;6.00;99.90;;;;;;7722583;28;20412;-76
2020/12/07 07:30:16;;;;;;;92.30;17.70;;;6.10;99.90;;;;;;7723626;28;20095;-76
2020/12/07 07:33:58;;;;;;;62.23;15.63;;;6.10;99.90;;;;;;7724122;28;20040;-75
2020/12/07 07:37:40;;;;;;;9.77;6.50;;;5.80;99.90;;;;;;7723968;28;20642;-75
2020/12/07 07:41:23;;;;;;;30.90;10.10;;;5.80;99.90;;;;;;7726246;28;20138;-75
2020/12/07 07:45:05;;;;;;;7.53;5.20;;;5.70;99.90;;;;;;7733652;27;20134;-73
2020/12/07 08:12:55;;;;;;;21.27;8.70;;;5.90;99.90;;;;;;7721306;28;20095;-75
2020/12/07 08:16:36;;;;;;;26.17;11.67;;;5.90;99.90;;;;;;7720894;28;20087;-75
2020/12/07 08:20:20;;;;;;;16.90;11.00;;;5.80;99.90;;;;;;7732774;28;20099;-77
2020/12/07 08:24:06;;;;;;;16.00;9.93;;;5.80;99.90;;;;;;7722175;28;20114;-77
2020/12/07 08:27:47;;;;;;;13.63;7.75;;;5.70;99.90;;;;;;7718039;28;20064;-76
2020/12/07 08:31:35;;;;;;;17.60;10.23;;;5.60;99.90;;;;;;7727914;28;20353;-75
2020/12/07 08:35:18;;;;;;;38.37;16.23;;;5.60;99.90;;;;;;7722208;28;20088;-76
2020/12/07 08:38:59;;;;;;;25.50;14.37;;;5.60;99.90;;;;;;7717703;28;20067;-76
2020/12/07 08:42:41;;;;;;;10.73;6.37;;;5.60;99.90;;;;;;7720655;28;20286;-75
2020/12/07 08:46:25;;;;;;;18.03;10.33;;;5.60;99.90;;;;;;7712430;28;20155;-76
2020/12/07 08:50:06;;;;;;;19.90;9.73;;;5.60;99.90;;;;;;7709225;28;20064;-79
2020/12/07 08:53:49;;;;;;;27.43;14.97;;;5.70;99.90;;;;;;7727629;28;20064;-76
2020/12/07 08:57:31;;;;;;;22.57;12.23;;;5.70;99.90;;;;;;7708607;28;20098;-76
2020/12/07 09:01:12;;;;;;;13.77;8.80;;;5.80;99.90;;;;;;7724561;28;20079;-76
2020/12/07 09:04:54;;;;;;;17.07;9.53;;;5.70;99.90;;;;;;7725857;28;20451;-75
2020/12/07 09:08:37;;;;;;;19.73;11.97;;;5.70;99.90;;;;;;7712564;28;20202;-77
2020/12/07 09:12:18;;;;;;;19.13;10.87;;;5.70;99.90;;;;;;7728218;28;20147;-78
2020/12/07 09:16:00;;;;;;;27.57;11.40;;;5.70;99.90;;;;;;7751904;27;20114;-78
2020/12/07 09:19:41;;;;;;;15.90;10.07;;;5.70;99.90;;;;;;7731286;28;20507;-77
2020/12/07 09:23:24;;;;;;;9.00;5.83;;;5.70;99.90;;;;;;7711163;28;20140;-76
2020/12/07 09:27:06;;;;;;;13.50;8.17;;;5.70;99.90;;;;;;7725391;28;20095;-79
2020/12/07 09:30:48;;;;;;;10.90;6.60;;;5.70;99.90;;;;;;7709459;28;20058;-77
2020/12/07 09:34:29;;;;;;;8.43;4.67;;;5.80;99.90;;;;;;7722237;28;20052;-77
2020/12/07 09:38:11;;;;;;;6.87;4.40;;;5.80;99.90;;;;;;7725253;28;20101;-77
2020/12/07 09:41:52;;;;;;;8.03;5.40;;;5.90;99.90;;;;;;7730978;28;20396;-77
2020/12/07 09:45:34;;;;;;;8.43;4.10;;;6.00;99.90;;;;;;7730517;28;20148;-76
2020/12/07 09:49:15;;;;;;;10.50;6.23;;;6.20;99.90;;;;;;7741160;28;20106;-76
2020/12/07 09:52:56;;;;;;;10.97;6.27;;;6.20;99.90;;;;;;7739697;28;20051;-76
2020/12/07 09:56:38;;;;;;;25.00;10.37;;;6.30;99.90;;;;;;7744947;28;20135;-77
2020/12/07 10:00:20;;;;;;;23.80;10.50;;;6.40;99.90;;;;;;7735397;28;20170;-76
2020/12/07 10:04:02;;;;;;;11.43;6.73;;;6.30;99.90;;;;;;7734096;28;20143;-77
2020/12/07 10:07:44;;;;;;;28.40;11.20;;;6.30;99.90;;;;;;7729069;28;20060;-76
2020/12/07 10:11:26;;;;;;;7.63;4.53;;;6.30;99.90;;;;;;7731823;28;20076;-78
2020/12/07 10:15:08;;;;;;;9.83;5.87;;;6.30;99.90;;;;;;7729323;28;20084;-81
2020/12/07 10:18:49;;;;;;;14.23;8.10;;;6.30;99.90;;;;;;7739936;28;20142;-82
2020/12/07 10:22:30;;;;;;;22.47;9.20;;;6.30;99.90;;;;;;7714089;28;20136;-78
2020/12/07 10:26:12;;;;;;;45.77;13.23;;;6.30;99.90;;;;;;7730645;28;20153;-83
2020/12/07 10:29:54;;;;;;;14.00;8.50;;;6.30;99.90;;;;;;7707975;28;20056;-76
2020/12/07 10:33:35;;;;;;;9.50;5.97;;;6.30;99.90;;;;;;7718367;28;20449;-79
2020/12/07 10:37:17;;;;;;;7.80;4.43;;;6.30;99.90;;;;;;7715994;28;20519;-74
2020/12/07 10:40:59;;;;;;;8.87;5.07;;;6.30;99.90;;;;;;7711390;28;20375;-80
2020/12/07 10:44:40;;;;;;;11.77;6.90;;;6.40;99.90;;;;;;7716131;28;20048;-74
2020/12/07 10:48:22;;;;;;;9.03;5.10;;;5.70;99.90;;;;;;7719584;28;20091;-77
2020/12/07 10:52:04;;;;;;;89.80;18.37;;;6.40;99.90;;;;;;7732499;28;20052;-77
2020/12/07 10:55:45;;;;;;;10.43;6.10;;;6.50;99.90;;;;;;7731285;28;20084;-80
2020/12/07 10:59:27;;;;;;;14.97;8.80;;;6.50;99.90;;;;;;7714886;28;20108;-77
2020/12/07 11:03:08;;;;;;;10.77;6.90;;;6.50;99.90;;;;;;7732868;28;20464;-77
2020/12/07 11:07:09;;;;;;;15.17;7.57;;;6.50;99.90;;;;;;7729345;27;20309;-75
2020/12/07 11:10:53;;;;;;;15.10;8.65;;;6.50;99.90;;;;;;7717431;28;20250;-78
2020/12/07 11:14:34;;;;;;;53.23;14.50;;;6.50;99.90;;;;;;7732003;28;20071;-79
2020/12/07 11:18:16;;;;;;;23.00;12.87;;;6.40;99.90;;;;;;7728348;28;20071;-77
2020/12/07 11:21:57;;;;;;;16.23;8.57;;;6.40;99.90;;;;;;7717066;28;20067;-76
2020/12/07 11:25:39;;;;;;;17.00;8.73;;;6.40;99.90;;;;;;7728866;28;20139;-78
2020/12/07 11:29:20;;;;;;;20.73;11.23;;;6.30;99.90;;;;;;7738203;28;20056;-77
2020/12/07 11:33:02;;;;;;;19.37;8.43;;;6.30;99.90;;;;;;7727901;28;20052;-79
2020/12/07 11:36:44;;;;;;;27.67;11.23;;;6.30;99.90;;;;;;7729261;28;20091;-76
2020/12/07 11:44:27;;;;;;;90.97;20.83;;;6.30;99.90;;;;;;7742078;28;20075;-77
2020/12/07 11:48:10;;;;;;;26.23;12.90;;;6.40;99.90;;;;;;7727530;28;20052;-77
2020/12/07 11:51:52;;;;;;;33.83;14.53;;;6.30;99.90;;;;;;7729535;28;20417;-77
2020/12/07 11:55:33;;;;;;;15.83;9.00;;;6.20;99.90;;;;;;7731121;28;20122;-76
2020/12/07 11:59:15;;;;;;;15.77;8.23;;;6.20;99.90;;;;;;7728219;28;20104;-76
2020/12/07 12:02:57;;;;;;;42.10;15.13;;;6.30;99.90;;;;;;7726945;28;20095;-78
2020/12/07 12:06:39;;;;;;;24.40;11.60;;;6.30;99.90;;;;;;7725691;28;20095;-78
2020/12/07 12:10:20;;;;;;;52.37;17.13;;;6.30;99.90;;;;;;7729497;28;20503;-76
2020/12/07 12:14:03;;;;;;;23.00;11.53;;;6.60;99.90;;;;;;7725773;28;20147;-77
2020/12/07 12:17:45;;;;;;;15.97;7.87;;;6.30;99.90;;;;;;7729272;28;20088;-78
2020/12/07 12:21:30;;;;;;;73.10;16.13;;;6.30;99.90;;;;;;7727923;28;20454;-77
2020/12/07 12:25:12;;;;;;;37.83;13.32;;;6.30;99.90;;;;;;7729411;28;20205;-79
2020/12/07 12:28:54;;;;;;;9.63;6.60;;;6.40;99.90;;;;;;7730431;28;20155;-81
2020/12/07 12:32:35;;;;;;;28.00;12.93;;;6.40;99.90;;;;;;7733270;28;20064;-77
2020/12/07 12:36:19;;;;;;;24.13;12.90;;;6.40;99.90;;;;;;7720548;28;20056;-77
2020/12/07 12:40:01;;;;;;;26.50;12.57;;;6.40;99.90;;;;;;7700786;28;20135;-78
2020/12/07 12:43:43;;;;;;;14.67;7.17;;;6.40;99.90;;;;;;7729916;28;20420;-77
2020/12/07 12:47:25;;;;;;;22.13;12.37;;;6.50;99.90;;;;;;7734079;28;20140;-79
2020/12/07 12:51:10;;;;;;;21.13;11.07;;;6.60;99.90;;;;;;7735456;28;20463;-77
2020/12/07 12:54:52;;;;;;;19.63;11.43;;;6.60;99.90;;;;;;7731997;28;20056;-77
2020/12/07 12:58:34;;;;;;;14.80;8.53;;;6.50;99.90;;;;;;7734061;28;20099;-76
2020/12/07 13:02:15;;;;;;;21.10;11.67;;;6.40;99.90;;;;;;7731217;28;20384;-80
2020/12/07 13:05:57;;;;;;;13.77;7.97;;;6.40;99.90;;;;;;7725443;28;20446;-76
2020/12/07 13:09:38;;;;;;;20.80;10.70;;;6.30;99.90;;;;;;7732455;28;20143;-77
2020/12/07 13:13:20;;;;;;;24.17;11.87;;;6.40;99.90;;;;;;7731393;28;20072;-77
2020/12/07 13:17:24;;;;;;;16.13;9.90;;;6.30;99.90;;;;;;7732697;28;20349;-76
2020/12/07 13:21:19;;;;;;;13.30;7.73;;;6.30;99.90;;;;;;7730945;28;20084;-78
2020/12/07 13:28:43;;;;;;;15.70;8.90;;;6.30;99.90;;;;;;7725976;28;20345;-79
2020/12/07 13:32:24;;;;;;;21.30;12.13;;;6.30;99.90;;;;;;7733698;28;20397;-79
2020/12/07 13:36:18;;;;;;;14.77;9.13;;;6.40;99.90;;;;;;7736139;28;20060;-77
2020/12/07 13:40:00;;;;;;;17.77;10.60;;;6.40;99.90;;;;;;7732680;28;20099;-76
2020/12/07 13:43:41;;;;;;;15.67;9.83;;;6.40;99.90;;;;;;7729869;28;20090;-76
2020/12/07 13:47:25;;;;;;;10.23;6.23;;;6.40;99.90;;;;;;7732855;28;20056;-76
2020/12/07 13:51:07;;;;;;;16.50;11.20;;;6.40;99.90;;;;;;7734740;28;20421;-79
2020/12/07 13:54:49;;;;;;;15.40;10.20;;;6.50;99.90;;;;;;7733277;28;20058;-80
2020/12/07 13:58:30;;;;;;;22.03;13.43;;;6.50;99.90;;;;;;7726376;28;20067;-77
2020/12/07 14:02:12;;;;;;;18.67;10.80;;;6.50;99.90;;;;;;7732111;28;20146;-77
2020/12/07 14:05:53;;;;;;;10.50;6.80;;;6.50;99.90;;;;;;7728209;28;20095;-76
2020/12/07 14:09:35;;;;;;;13.67;8.67;;;6.40;99.90;;;;;;7727479;28;20094;-79
2020/12/07 14:13:17;;;;;;;13.67;8.77;;;6.40;99.90;;;;;;7728578;28;20528;-78
2020/12/07 14:17:05;;;;;;;14.93;9.37;;;6.40;99.90;;;;;;7729411;28;20142;-77
2020/12/07 14:40:14;;;;;;;19.42;12.73;;;6.50;99.90;;;;;;7731770;28;20448;-76
2020/12/07 14:43:55;;;;;;;12.07;7.90;;;6.50;99.90;;;;;;7713384;28;20144;-79
2020/12/07 14:47:42;;;;;;;21.03;12.73;;;6.40;99.90;;;;;;7698632;28;20214;-77
2020/12/07 14:51:37;;;;;;;18.97;11.73;;;6.40;99.90;;;;;;7782323;27;20209;-78
2020/12/07 14:55:33;;;;;;;22.17;13.13;;;6.30;99.90;;;;;;7744293;28;20154;-80
2020/12/07 15:15:03;;;;;;;15.53;9.17;;;6.20;99.90;;;;;;7733013;28;20106;-77
2020/12/07 15:18:45;;;;;;;17.70;11.60;;;6.30;99.90;;;;;;7750183;28;20056;-78
2020/12/07 15:22:27;;;;;;;13.77;9.47;;;6.30;99.90;;;;;;7727494;28;20083;-77
2020/12/07 15:26:09;;;;;;;13.87;9.17;;;6.30;99.90;;;;;;7725621;28;20102;-77
2020/12/07 15:29:51;;;;;;;10.40;6.80;;;6.30;99.90;;;;;;7730055;28;20397;-77
2020/12/07 15:33:33;;;;;;;10.13;6.60;;;6.30;99.90;;;;;;7716192;28;20131;-77
2020/12/07 15:37:14;;;;;;;14.77;8.93;;;6.30;99.90;;;;;;7709333;28;20056;-75
2020/12/07 15:40:56;;;;;;;17.47;10.17;;;6.40;99.90;;;;;;7727595;28;20284;-76
2020/12/07 15:44:37;;;;;;;12.47;8.17;;;6.40;99.90;;;;;;7729119;28;20106;-75
2020/12/07 15:48:20;;;;;;;13.60;8.60;;;6.30;99.90;;;;;;7728428;28;20131;-77
2020/12/07 15:52:02;;;;;;;19.07;11.97;;;6.30;99.90;;;;;;7713725;28;20056;-76
2020/12/07 15:55:44;;;;;;;18.77;11.97;;;6.30;99.90;;;;;;7710538;28;20136;-75
2020/12/07 15:59:25;;;;;;;27.23;15.37;;;6.20;99.90;;;;;;7694046;28;20117;-75
2020/12/07 16:03:08;;;;;;;21.77;14.07;;;6.20;99.90;;;;;;7723263;28;20060;-78
2020/12/07 16:06:50;;;;;;;18.87;12.10;;;6.20;99.90;;;;;;7731567;28;20099;-75
2020/12/07 16:10:32;;;;;;;8.73;5.83;;;6.20;99.90;;;;;;7735336;28;20132;-75
2020/12/07 16:14:13;;;;;;;13.70;8.77;;;6.10;99.90;;;;;;7736777;28;20059;-75
2020/12/07 16:17:55;;;;;;;13.67;8.60;;;6.10;99.90;;;;;;7726810;28;20064;-77
2020/12/07 16:21:36;;;;;;;16.80;10.47;;;6.20;99.90;;;;;;7732386;28;20056;-75
2020/12/07 16:25:19;;;;;;;19.10;11.47;;;6.20;99.90;;;;;;7732547;28;20068;-75
2020/12/07 16:29:03;;;;;;;10.43;6.60;;;6.20;99.90;;;;;;7734685;28;20060;-75
2020/12/07 16:32:45;;;;;;;17.40;10.67;;;6.20;99.90;;;;;;7734319;28;20412;-77
2020/12/07 16:36:27;;;;;;;12.47;7.77;;;6.30;99.90;;;;;;7739991;28;20056;-77
2020/12/07 16:40:08;;;;;;;14.00;8.53;;;6.20;99.90;;;;;;7733952;28;20398;-75
2020/12/07 16:43:50;;;;;;;10.07;6.47;;;6.30;99.90;;;;;;7731546;28;20392;-75
2020/12/07 16:47:36;;;;;;;19.87;11.03;;;6.30;99.90;;;;;;7731449;28;20112;-79
2020/12/07 16:51:17;;;;;;;12.15;7.00;;;6.30;99.80;;;;;;7731898;28;20056;-78
2020/12/07 16:54:59;;;;;;;15.10;8.47;;;6.30;99.90;;;;;;7735100;28;20075;-77
2020/12/07 16:58:40;;;;;;;18.33;10.90;;;6.30;99.90;;;;;;7729451;28;20453;-77
2020/12/07 17:02:22;;;;;;;19.13;11.13;;;6.30;99.90;;;;;;7728146;28;21286;-77
2020/12/07 17:06:04;;;;;;;25.00;14.83;;;6.20;99.90;;;;;;7724393;28;20060;-79
2020/12/07 17:09:46;;;;;;;22.27;13.37;;;6.20;99.90;;;;;;7732618;28;20060;-78
2020/12/07 17:13:39;;;;;;;20.33;12.53;;;6.20;99.90;;;;;;7733138;28;20429;-78
2020/12/07 17:17:21;;;;;;;14.13;8.67;;;6.10;99.90;;;;;;7728874;28;20094;-78
2020/12/07 17:21:03;;;;;;;20.93;12.77;;;6.20;99.90;;;;;;7724472;28;20105;-77
2020/12/07 17:24:44;;;;;;;26.13;16.67;;;6.20;99.90;;;;;;7722660;28;20139;-78
2020/12/07 17:28:28;;;;;;;18.50;11.43;;;6.30;99.90;;;;;;7730453;28;20862;-77
2020/12/07 17:32:09;;;;;;;16.60;10.60;;;6.30;99.90;;;;;;7710684;28;20135;-77
2020/12/07 17:35:50;;;;;;;26.37;15.50;;;6.10;99.90;;;;;;7702755;28;20500;-76
2020/12/07 17:39:33;;;;;;;14.47;8.07;;;6.10;99.90;;;;;;7722837;28;20091;-76
2020/12/07 17:43:14;;;;;;;26.03;13.70;;;6.10;99.90;;;;;;7733948;28;20052;-78
2020/12/07 17:46:57;;;;;;;21.33;12.03;;;6.20;99.90;;;;;;7730769;28;20491;-77
2020/12/07 17:50:39;;;;;;;21.07;11.40;;;6.20;99.90;;;;;;7750013;28;20336;-77
2020/12/07 17:54:20;;;;;;;15.33;10.00;;;6.30;99.90;;;;;;7734773;28;20178;-78
2020/12/07 17:58:02;;;;;;;12.13;7.63;;;6.40;99.90;;;;;;7729574;28;20090;-78
2020/12/07 18:01:43;;;;;;;17.80;9.83;;;6.40;99.90;;;;;;7720210;28;20098;-77
2020/12/07 18:05:25;;;;;;;15.90;9.57;;;6.40;99.90;;;;;;7723636;28;20132;-78
2020/12/07 18:09:06;;;;;;;23.83;12.73;;;6.50;99.90;;;;;;7734421;28;20471;-77
2020/12/07 18:12:48;;;;;;;11.83;7.90;;;6.50;99.90;;;;;;7761599;28;20062;-78
2020/12/07 18:16:30;;;;;;;13.50;8.23;;;6.50;99.90;;;;;;7762978;28;20064;-77
2020/12/07 18:20:11;;;;;;;7.73;4.30;;;6.60;99.90;;;;;;7743574;28;20060;-76
2020/12/07 18:23:53;;;;;;;9.90;5.40;;;6.60;99.80;;;;;;7722648;28;20090;-77
2020/12/07 18:27:35;;;;;;;6.87;3.87;;;6.70;99.70;;;;;;7697772;28;20487;-77
2020/12/07 18:31:16;;;;;;;5.90;2.80;;;6.70;99.70;;;;;;7719877;28;20064;-78
2020/12/07 18:34:58;;;;;;;4.97;2.67;;;6.70;99.80;;;;;;7713926;28;20131;-78
2020/12/07 18:38:57;;;;;;;3.63;2.17;;;6.80;99.50;;;;;;7741029;27;20479;-81
2020/12/07 18:42:39;;;;;;;3.63;2.13;;;6.80;99.40;;;;;;7731729;28;20086;-78
2020/12/07 18:46:22;;;;;;;3.13;1.67;;;6.90;99.30;;;;;;7728843;28;20435;-77
2020/12/07 18:50:05;;;;;;;13.97;7.20;;;7.10;99.30;;;;;;7731661;28;20138;-77
2020/12/07 18:53:47;;;;;;;9.47;5.27;;;7.10;99.10;;;;;;7729209;28;20063;-78
2020/12/07 18:57:32;;;;;;;11.23;6.00;;;7.20;99.20;;;;;;7730239;28;20050;-79
2020/12/07 19:01:14;;;;;;;5.50;3.17;;;7.20;98.80;;;;;;7728434;28;20056;-80
2020/12/07 19:04:56;;;;;;;7.70;4.57;;;7.20;98.90;;;;;;7725842;28;20072;-76
2020/12/07 19:08:39;;;;;;;9.53;5.40;;;7.20;98.90;;;;;;7726675;28;20452;-79
2020/12/07 19:12:23;;;;;;;5.10;3.00;;;7.20;98.90;;;;;;7724656;28;20114;-78
2020/12/07 19:16:05;;;;;;;18.97;10.23;;;7.20;98.90;;;;;;7726918;28;20143;-80
2020/12/07 19:19:47;;;;;;;22.87;14.00;;;7.30;98.90;;;;;;7740242;28;20171;-79
2020/12/07 19:23:28;;;;;;;16.67;9.83;;;7.20;98.80;;;;;;7725665;28;20356;-79
2020/12/07 19:27:10;;;;;;;16.30;10.13;;;7.20;98.90;;;;;;7723917;28;20145;-79
2020/12/07 19:30:53;;;;;;;18.97;11.83;;;7.00;99.10;;;;;;7727088;28;20708;-78
2020/12/07 19:34:34;;;;;;;19.13;11.27;;;7.00;99.30;;;;;;7723602;28;20078;-79
2020/12/07 19:38:16;;;;;;;21.70;12.57;;;7.00;99.50;;;;;;7729614;28;20072;-78
2020/12/07 19:41:57;;;;;;;17.97;9.53;;;7.00;99.80;;;;;;7733444;28;20409;-81
2020/12/07 19:45:39;;;;;;;20.90;11.87;;;7.00;99.50;;;;;;7733539;28;20496;-79
2020/12/07 19:49:20;;;;;;;16.73;8.70;;;7.00;99.50;;;;;;7737601;28;20097;-79
2020/12/07 19:53:02;;;;;;;22.93;13.77;;;7.00;99.50;;;;;;7735617;28;20427;-79
2020/12/07 19:56:50;;;;;;;12.67;7.43;;;7.00;99.40;;;;;;7735731;28;20068;-80
2020/12/07 20:00:31;;;;;;;7.77;4.90;;;7.00;99.30;;;;;;7733651;28;20055;-80
2020/12/07 20:04:13;;;;;;;9.03;5.13;;;7.00;99.40;;;;;;7744565;28;20085;-77
2020/12/07 20:07:54;;;;;;;12.67;7.07;;;7.00;99.40;;;;;;7752903;28;20139;-78
2020/12/07 20:11:36;;;;;;;17.23;10.77;;;7.00;99.30;;;;;;7737774;27;20657;-79
2020/12/07 20:15:18;;;;;;;17.77;10.70;;;7.00;99.20;;;;;;7757255;28;20079;-78
2020/12/07 20:19:01;;;;;;;11.53;7.23;;;7.00;99.10;;;;;;7729399;28;20399;-82
2020/12/07 20:22:51;;;;;;;20.70;10.37;;;6.90;99.10;;;;;;7749725;28;20382;-78
2020/12/07 20:26:41;;;;;;;12.07;6.77;;;6.90;99.00;;;;;;7702044;28;20140;-82
2020/12/07 20:30:27;;;;;;;8.83;5.07;;;6.80;99.10;;;;;;7745897;28;20064;-78